sensor_id;sensor_type;location;lat;lon;timestamp;pressure;altitude;pressure_sealevel;temperature;humidity
49943;BME280;36011;53.362;58.948;2023-03-13T00:02:42;97809.81;;;-1.59;79.64
49943;BME280;36011;53.362;58.948;2023-03-13T00:05:47;97801.19;;;-1.43;79.57
49943;BME280;36011;53.362;58.948;2023-03-13T00:08:51;97799.47;;;-1.44;79.01
49943;BME280;36011;53.362;58.948;2023-03-13T00:11:55;97801.19;;;-1.43;79.13
49943;BME280;36011;53.362;58.948;2023-03-13T00:14:56;97799.47;;;-1.53;79.27
49943;BME280;36011;53.362;58.948;2023-03-13T00:18:00;97802.00;;;-1.31;78.67
49943;BME280;36011;53.362;58.948;2023-03-13T00:21:05;97802.06;;;-1.50;79.19
49943;BME280;36011;53.362;58.948;2023-03-13T00:24:10;97804.63;;;-1.41;79.95
49943;BME280;36011;53.362;58.948;2023-03-13T00:27:15;97796.03;;;-1.49;80.22
49943;BME280;36011;53.362;58.948;2023-03-13T00:30:16;97787.44;;;-1.54;80.11
49943;BME280;36011;53.362;58.948;2023-03-13T00:33:20;97792.59;;;-1.49;80.38
49943;BME280;36011;53.362;58.948;2023-03-13T00:36:25;97800.31;;;-1.37;80.46
49943;BME280;36011;53.362;58.948;2023-03-13T00:39:27;97798.56;;;-1.29;79.68
49943;BME280;36011;53.362;58.948;2023-03-13T00:42:31;97802.88;;;-1.32;79.34
49943;BME280;36011;53.362;58.948;2023-03-13T00:45:32;97788.22;;;-1.23;78.69
49943;BME280;36011;53.362;58.948;2023-03-13T00:48:34;97783.94;;;-1.28;79.00
49943;BME280;36011;53.362;58.948;2023-03-13T00:51:35;97783.94;;;-1.28;78.88
49943;BME280;36011;53.362;58.948;2023-03-13T00:54:36;97787.41;;;-1.43;79.73
49943;BME280;36011;53.362;58.948;2023-03-13T00:57:41;97777.94;;;-1.32;79.48
49943;BME280;36011;53.362;58.948;2023-03-13T01:00:42;97787.41;;;-1.39;79.60
49943;BME280;36011;53.362;58.948;2023-03-13T01:03:49;97783.13;;;-1.43;79.61
49943;BME280;36011;53.362;58.948;2023-03-13T01:06:50;97783.13;;;-1.43;79.79
49943;BME280;36011;53.362;58.948;2023-03-13T01:09:54;97766.69;;;-1.23;79.08
49943;BME280;36011;53.362;58.948;2023-03-13T01:12:58;97776.25;;;-1.47;79.57
49943;BME280;36011;53.362;58.948;2023-03-13T01:16:05;97761.59;;;-1.32;79.30
49943;BME280;36011;53.362;58.948;2023-03-13T01:19:13;97759.06;;;-1.49;78.90
49943;BME280;36011;53.362;58.948;2023-03-13T01:22:18;97769.41;;;-1.60;79.07
49943;BME280;36011;53.362;58.948;2023-03-13T01:25:22;97761.69;;;-1.69;79.32
49943;BME280;36011;53.362;58.948;2023-03-13T01:28:25;97763.34;;;-1.56;79.75
49943;BME280;36011;53.362;58.948;2023-03-13T01:31:32;97765.09;;;-1.55;79.44
49943;BME280;36011;53.362;58.948;2023-03-13T01:34:37;97761.66;;;-1.62;79.56
49943;BME280;36011;53.362;58.948;2023-03-13T01:37:43;97755.66;;;-1.64;79.45
49943;BME280;36011;53.362;58.948;2023-03-13T01:40:50;97765.94;;;-1.54;79.51
49943;BME280;36011;53.362;58.948;2023-03-13T01:43:52;97762.53;;;-1.70;78.98
49943;BME280;36011;53.362;58.948;2023-03-13T01:46:57;97749.63;;;-1.70;79.12
49943;BME280;36011;53.362;58.948;2023-03-13T01:50:04;97744.47;;;-1.76;79.87
49943;BME280;36011;53.362;58.948;2023-03-13T01:53:05;97756.50;;;-1.60;79.87
49943;BME280;36011;53.362;58.948;2023-03-13T01:56:10;97754.78;;;-1.73;79.88
49943;BME280;36011;53.362;58.948;2023-03-13T01:59:19;97751.38;;;-1.69;80.17
49943;BME280;36011;53.362;58.948;2023-03-13T02:02:27;97753.06;;;-1.62;80.00
49943;BME280;36011;53.362;58.948;2023-03-13T02:05:30;97765.06;;;-1.56;79.37
49943;BME280;36011;53.362;58.948;2023-03-13T02:11:51;97752.13;;;-1.40;78.50
49943;BME280;36011;53.362;58.948;2023-03-13T02:14:57;97746.06;;;-1.28;78.13
49943;BME280;36011;53.362;58.948;2023-03-13T02:17:59;97742.66;;;-1.41;78.53
49943;BME280;36011;53.362;58.948;2023-03-13T02:21:13;97740.94;;;-1.42;78.95
49943;BME280;36011;53.362;58.948;2023-03-13T02:24:53;97747.78;;;-1.31;79.00
49943;BME280;36011;53.362;58.948;2023-03-13T02:28:08;97738.38;;;-1.39;78.51
49943;BME280;36011;53.362;58.948;2023-03-13T02:31:11;97736.66;;;-1.43;79.08
49943;BME280;36011;53.362;58.948;2023-03-13T02:34:14;97740.97;;;-1.48;79.23
49943;BME280;36011;53.362;58.948;2023-03-13T02:37:22;97737.56;;;-1.50;79.34
49943;BME280;36011;53.362;58.948;2023-03-13T02:40:34;97725.47;;;-1.48;79.65
49943;BME280;36011;53.362;58.948;2023-03-13T02:43:37;97716.91;;;-1.56;79.72
49943;BME280;36011;53.362;58.948;2023-03-13T02:46:47;97718.53;;;-1.37;80.03
49943;BME280;36011;53.362;58.948;2023-03-13T02:49:50;97715.16;;;-1.48;80.29
49943;BME280;36011;53.362;58.948;2023-03-13T02:52:57;97715.09;;;-1.32;79.49
49943;BME280;36011;53.362;58.948;2023-03-13T02:56:04;97715.13;;;-1.42;79.55
49943;BME280;36011;53.362;58.948;2023-03-13T02:59:07;97709.94;;;-1.32;78.99
49943;BME280;36011;53.362;58.948;2023-03-13T03:02:09;97713.44;;;-1.46;79.55
49943;BME280;36011;53.362;58.948;2023-03-13T03:05:12;97704.78;;;-1.32;79.02
49943;BME280;36011;53.362;58.948;2023-03-13T03:08:18;97700.50;;;-1.38;78.91
49943;BME280;36011;53.362;58.948;2023-03-13T03:11:28;97699.63;;;-1.32;79.27
49943;BME280;36011;53.362;58.948;2023-03-13T03:14:32;97699.59;;;-1.29;79.50
49943;BME280;36011;53.362;58.948;2023-03-13T03:17:33;97702.22;;;-1.39;79.45
49943;BME280;36011;53.362;58.948;2023-03-13T03:20:35;97695.34;;;-1.43;79.55
49943;BME280;36011;53.362;58.948;2023-03-13T03:23:39;97697.03;;;-1.34;79.08
49943;BME280;36011;53.362;58.948;2023-03-13T03:26:42;97692.78;;;-1.49;79.56
49943;BME280;36011;53.362;58.948;2023-03-13T03:29:44;97704.84;;;-1.51;79.31
49943;BME280;36011;53.362;58.948;2023-03-13T03:32:48;97691.94;;;-1.54;79.31
49943;BME280;36011;53.362;58.948;2023-03-13T03:35:59;97707.44;;;-1.52;79.34
49943;BME280;36011;53.362;58.948;2023-03-13T03:39:01;97706.56;;;-1.56;79.05
49943;BME280;36011;53.362;58.948;2023-03-13T03:42:03;97715.16;;;-1.51;79.59
49943;BME280;36011;53.362;58.948;2023-03-13T03:45:08;97715.19;;;-1.60;79.90
49943;BME280;36011;53.362;58.948;2023-03-13T03:48:14;97719.44;;;-1.45;79.38
49943;BME280;36011;53.362;58.948;2023-03-13T03:51:18;97705.69;;;-1.49;79.26
49943;BME280;36011;53.362;58.948;2023-03-13T03:54:19;97712.59;;;-1.49;79.36
49943;BME280;36011;53.362;58.948;2023-03-13T03:57:23;97697.13;;;-1.52;79.03
49943;BME280;36011;53.362;58.948;2023-03-13T04:00:27;97683.38;;;-1.65;79.90
49943;BME280;36011;53.362;58.948;2023-03-13T04:03:33;97701.38;;;-1.44;79.82
49943;BME280;36011;53.362;58.948;2023-03-13T04:06:34;97692.75;;;-1.43;79.89
49943;BME280;36011;53.362;58.948;2023-03-13T04:09:40;97688.38;;;-1.24;79.16
49943;BME280;36011;53.362;58.948;2023-03-13T04:12:41;97689.19;;;-1.17;78.86
49943;BME280;36011;53.362;58.948;2023-03-13T04:15:42;97690.91;;;-1.13;79.39
49943;BME280;36011;53.362;58.948;2023-03-13T04:18:44;97686.47;;;-0.91;78.59
49943;BME280;36011;53.362;58.948;2023-03-13T04:21:47;97689.13;;;-1.05;78.53
49943;BME280;36011;53.362;58.948;2023-03-13T04:24:52;97679.59;;;-0.95;78.63
49943;BME280;36011;53.362;58.948;2023-03-13T04:27:54;97690.78;;;-0.95;78.92
49943;BME280;36011;53.362;58.948;2023-03-13T04:30:55;97681.34;;;-0.97;79.59
49943;BME280;36011;53.362;58.948;2023-03-13T04:33:58;97690.81;;;-0.98;80.08
49943;BME280;36011;53.362;58.948;2023-03-13T04:36:59;97695.97;;;-0.95;79.21
49943;BME280;36011;53.362;58.948;2023-03-13T04:40:01;97695.88;;;-0.82;80.19
49943;BME280;36011;53.362;58.948;2023-03-13T04:43:04;97695.78;;;-0.67;80.05
49943;BME280;36011;53.362;58.948;2023-03-13T04:46:05;97700.75;;;-0.39;78.96
49943;BME280;36011;53.362;58.948;2023-03-13T04:49:08;97702.50;;;-0.46;78.54
49943;BME280;36011;53.362;58.948;2023-03-13T04:52:12;97703.22;;;-0.29;77.97
49943;BME280;36011;53.362;58.948;2023-03-13T04:55:16;97698.91;;;-0.25;76.60
49943;BME280;36011;53.362;58.948;2023-03-13T04:58:19;97687.81;;;-0.39;77.00
49943;BME280;36011;53.362;58.948;2023-03-13T05:01:21;97697.38;;;-0.48;76.79
49943;BME280;36011;53.362;58.948;2023-03-13T05:04:25;97702.53;;;-0.49;76.99
49943;BME280;36011;53.362;58.948;2023-03-13T05:07:31;97701.63;;;-0.42;76.52
49943;BME280;36011;53.362;58.948;2023-03-13T05:10:32;97705.06;;;-0.41;76.94
49943;BME280;36011;53.362;58.948;2023-03-13T05:13:37;97697.41;;;-0.57;76.95
49943;BME280;36011;53.362;58.948;2023-03-13T05:16:40;97699.22;;;-0.68;78.19
49943;BME280;36011;53.362;58.948;2023-03-13T05:19:45;97699.00;;;-0.36;78.22
49943;BME280;36011;53.362;58.948;2023-03-13T05:22:46;97707.66;;;-0.41;77.49
49943;BME280;36011;53.362;58.948;2023-03-13T05:25:50;97706.75;;;-0.36;77.14
49943;BME280;36011;53.362;58.948;2023-03-13T05:28:51;97699.00;;;-0.40;77.09
49943;BME280;36011;53.362;58.948;2023-03-13T05:31:54;97699.78;;;-0.29;77.46
49943;BME280;36011;53.362;58.948;2023-03-13T05:34:56;97705.81;;;-0.27;76.67
49943;BME280;36011;53.362;58.948;2023-03-13T05:38:00;97696.19;;;-0.13;76.66
49943;BME280;36011;53.362;58.948;2023-03-13T05:41:07;97695.50;;;-0.30;76.95
49943;BME280;36011;53.362;58.948;2023-03-13T05:44:08;97702.28;;;-0.20;77.07
49943;BME280;36011;53.362;58.948;2023-03-13T05:47:09;97696.97;;;-0.05;76.77
49943;BME280;36011;53.362;58.948;2023-03-13T05:50:13;97695.28;;;-0.06;77.13
49943;BME280;36011;53.362;58.948;2023-03-13T05:53:15;97683.84;;;0.14;76.76
49943;BME280;36011;53.362;58.948;2023-03-13T05:56:17;97681.19;;;0.23;76.88
49943;BME280;36011;53.362;58.948;2023-03-13T05:59:18;97665.50;;;0.35;76.59
49943;BME280;36011;53.362;58.948;2023-03-13T06:02:22;97663.53;;;0.56;76.38
49943;BME280;36011;53.362;58.948;2023-03-13T06:05:30;97654.66;;;0.75;75.11
49943;BME280;36011;53.362;58.948;2023-03-13T06:08:37;97656.34;;;0.79;74.87
49943;BME280;36011;53.362;58.948;2023-03-13T06:11:40;97658.75;;;0.92;73.88
49943;BME280;36011;53.362;58.948;2023-03-13T06:14:42;97654.47;;;0.87;73.64
49943;BME280;36011;53.362;58.948;2023-03-13T06:17:46;97630.47;;;0.73;73.24
49943;BME280;36011;53.362;58.948;2023-03-13T06:20:54;97627.94;;;0.70;73.15
49943;BME280;36011;53.362;58.948;2023-03-13T06:23:56;97637.53;;;0.62;73.67
49943;BME280;36011;53.362;58.948;2023-03-13T06:26:57;97621.16;;;0.63;73.89
49943;BME280;36011;53.362;58.948;2023-03-13T06:29:58;97629.69;;;0.70;73.42
49943;BME280;36011;53.362;58.948;2023-03-13T06:33:00;97632.16;;;0.77;73.67
49943;BME280;36011;53.362;58.948;2023-03-13T06:36:01;97623.41;;;0.86;72.91
49943;BME280;36011;53.362;58.948;2023-03-13T06:39:03;97629.50;;;0.82;72.28
49943;BME280;36011;53.362;58.948;2023-03-13T06:42:04;97629.06;;;0.51;72.31
49943;BME280;36011;53.362;58.948;2023-03-13T06:45:06;97630.84;;;0.49;74.03
49943;BME280;36011;53.362;58.948;2023-03-13T06:48:11;97625.56;;;0.55;73.94
49943;BME280;36011;53.362;58.948;2023-03-13T06:51:13;97616.50;;;0.86;73.17
49943;BME280;36011;53.362;58.948;2023-03-13T06:54:20;97601.19;;;0.71;72.19
49943;BME280;36011;53.362;58.948;2023-03-13T06:57:24;97615.00;;;0.70;72.82
49943;BME280;36011;53.362;58.948;2023-03-13T07:00:28;97614.88;;;0.79;72.66
49943;BME280;36011;53.362;58.948;2023-03-13T07:03:33;97614.84;;;0.82;71.88
49943;BME280;36011;53.362;58.948;2023-03-13T07:06:37;97616.06;;;0.57;71.59
49943;BME280;36011;53.362;58.948;2023-03-13T07:09:41;97606.56;;;0.56;72.43
49943;BME280;36011;53.362;58.948;2023-03-13T07:12:42;97600.38;;;0.64;71.17
49943;BME280;36011;53.362;58.948;2023-03-13T07:15:44;97612.50;;;0.64;72.08
49943;BME280;36011;53.362;58.948;2023-03-13T07:18:46;97601.47;;;0.50;71.35
49943;BME280;36011;53.362;58.948;2023-03-13T07:21:48;97602.19;;;0.61;71.75
49943;BME280;36011;53.362;58.948;2023-03-13T07:24:50;97597.72;;;0.71;70.84
49943;BME280;36011;53.362;58.948;2023-03-13T07:27:54;97591.69;;;0.70;70.69
49943;BME280;36011;53.362;58.948;2023-03-13T07:31:12;97585.50;;;0.80;70.67
49943;BME280;36011;53.362;58.948;2023-03-13T07:34:15;97589.53;;;1.00;70.16
49943;BME280;36011;53.362;58.948;2023-03-13T07:37:22;97574.66;;;1.11;68.73
49943;BME280;36011;53.362;58.948;2023-03-13T07:40:26;97566.75;;;1.19;68.66
49943;BME280;36011;53.362;58.948;2023-03-13T07:43:27;97569.91;;;1.38;67.56
49943;BME280;36011;53.362;58.948;2023-03-13T07:46:36;97562.84;;;1.44;67.58
49943;BME280;36011;53.362;58.948;2023-03-13T07:49:37;97561.31;;;1.32;67.35
49943;BME280;36011;53.362;58.948;2023-03-13T07:52:42;97568.00;;;1.47;67.09
49943;BME280;36011;53.362;58.948;2023-03-13T07:55:52;97546.50;;;1.41;66.37
49943;BME280;36011;53.362;58.948;2023-03-13T07:58:54;97546.44;;;1.44;66.80
49943;BME280;36011;53.362;58.948;2023-03-13T08:01:56;97530.25;;;1.77;66.43
49943;BME280;36011;53.362;58.948;2023-03-13T08:05:02;97517.13;;;1.85;65.17
49943;BME280;36011;53.362;58.948;2023-03-13T08:08:04;97511.00;;;1.89;65.08
49943;BME280;36011;53.362;58.948;2023-03-13T08:11:09;97512.53;;;1.98;64.94
49943;BME280;36011;53.362;58.948;2023-03-13T08:14:13;97507.59;;;1.87;65.35
49943;BME280;36011;53.362;58.948;2023-03-13T08:17:14;97506.69;;;1.88;64.62
49943;BME280;36011;53.362;58.948;2023-03-13T08:20:16;97490.88;;;1.57;65.34
49943;BME280;36011;53.362;58.948;2023-03-13T08:23:23;97456.81;;;1.30;65.67
49943;BME280;36011;53.362;58.948;2023-03-13T08:26:27;97499.16;;;1.31;66.38
49943;BME280;36011;53.362;58.948;2023-03-13T08:29:30;97516.75;;;1.60;65.86
49943;BME280;36011;53.362;58.948;2023-03-13T08:32:35;97500.78;;;1.37;66.12
49943;BME280;36011;53.362;58.948;2023-03-13T08:35:41;97499.81;;;1.41;65.95
49943;BME280;36011;53.362;58.948;2023-03-13T08:38:44;97504.94;;;1.44;66.70
49943;BME280;36011;53.362;58.948;2023-03-13T08:41:51;97505.78;;;1.47;66.04
49943;BME280;36011;53.362;58.948;2023-03-13T08:44:57;97487.94;;;1.74;64.49
49943;BME280;36011;53.362;58.948;2023-03-13T08:47:58;97500.72;;;1.85;64.33
49943;BME280;36011;53.362;58.948;2023-03-13T08:51:06;97516.41;;;1.78;64.77
49943;BME280;36011;53.362;58.948;2023-03-13T08:54:12;97504.50;;;1.68;64.41
49943;BME280;36011;53.362;58.948;2023-03-13T08:57:16;97488.00;;;1.24;65.85
49943;BME280;36011;53.362;58.948;2023-03-13T09:00:22;97488.25;;;1.12;67.48
49943;BME280;36011;53.362;58.948;2023-03-13T09:03:24;97471.78;;;1.15;67.37
49943;BME280;36011;53.362;58.948;2023-03-13T09:06:27;97477.16;;;1.04;68.48
49943;BME280;36011;53.362;58.948;2023-03-13T09:09:29;97483.47;;;0.87;69.29
49943;BME280;36011;53.362;58.948;2023-03-13T09:12:30;97484.06;;;1.03;68.94
49943;BME280;36011;53.362;58.948;2023-03-13T09:15:36;97464.47;;;0.88;68.57
49943;BME280;36011;53.362;58.948;2023-03-13T09:18:41;97459.28;;;0.88;69.00
49943;BME280;36011;53.362;58.948;2023-03-13T09:21:49;97446.22;;;0.95;69.03
49943;BME280;36011;53.362;58.948;2023-03-13T09:24:56;97460.81;;;0.99;68.44
49943;BME280;36011;53.362;58.948;2023-03-13T09:28:00;97455.75;;;0.93;68.54
49943;BME280;36011;53.362;58.948;2023-03-13T09:34:10;97431.59;;;0.90;68.26
49943;BME280;36011;53.362;58.948;2023-03-13T09:37:14;97433.13;;;1.02;67.94
49943;BME280;36011;53.362;58.948;2023-03-13T09:40:18;97432.25;;;1.03;68.66
49943;BME280;36011;53.362;58.948;2023-03-13T09:50:06;97405.13;;;0.75;69.74
49943;BME280;36011;53.362;58.948;2023-03-13T09:53:24;97417.84;;;0.88;69.31
49943;BME280;36011;53.362;58.948;2023-03-13T09:56:45;97414.69;;;0.71;69.34
49943;BME280;36011;53.362;58.948;2023-03-13T09:59:57;97420.09;;;0.56;70.41
49943;BME280;36011;53.362;58.948;2023-03-13T10:06:41;97414.97;;;0.53;70.76
49943;BME280;36011;53.362;58.948;2023-03-13T10:09:43;97412.22;;;0.63;70.32
49943;BME280;36011;53.362;58.948;2023-03-13T10:12:55;97404.78;;;0.43;71.23
49943;BME280;36011;53.362;58.948;2023-03-13T10:16:03;97403.06;;;0.42;71.41
49943;BME280;36011;53.362;58.948;2023-03-13T10:19:16;97401.19;;;0.51;71.72
49943;BME280;36011;53.362;58.948;2023-03-13T10:22:23;97394.22;;;0.56;70.28
49943;BME280;36011;53.362;58.948;2023-03-13T10:25:36;97405.34;;;0.61;70.82
49943;BME280;36011;53.362;58.948;2023-03-13T10:28:40;97390.84;;;0.51;70.57
49943;BME280;36011;53.362;58.948;2023-03-13T10:31:53;97388.19;;;0.54;71.39
49943;BME280;36011;53.362;58.948;2023-03-13T10:35:00;97387.81;;;0.24;71.51
49943;BME280;36011;53.362;58.948;2023-03-13T10:38:16;97374.41;;;0.01;72.74
49943;BME280;36011;53.362;58.948;2023-03-13T10:41:32;97379.38;;;0.13;73.18
49943;BME280;36011;53.362;58.948;2023-03-13T10:44:36;97377.78;;;0.03;73.24
49943;BME280;36011;53.362;58.948;2023-03-13T10:47:41;97376.78;;;0.14;73.03
49943;BME280;36011;53.362;58.948;2023-03-13T10:50:44;97370.66;;;0.20;71.83
49943;BME280;36011;53.362;58.948;2023-03-13T10:53:45;97363.75;;;0.19;71.87
49943;BME280;36011;53.362;58.948;2023-03-13T10:56:50;97357.16;;;-0.01;72.43
49943;BME280;36011;53.362;58.948;2023-03-13T10:59:53;97358.78;;;0.07;72.26
49943;BME280;36011;53.362;58.948;2023-03-13T11:02:55;97355.28;;;0.08;73.18
49943;BME280;36011;53.362;58.948;2023-03-13T11:05:59;97363.84;;;0.13;73.24
49943;BME280;36011;53.362;58.948;2023-03-13T11:09:13;97360.19;;;0.26;72.11
49943;BME280;36011;53.362;58.948;2023-03-13T11:12:19;97348.22;;;0.19;72.44
49943;BME280;36011;53.362;58.948;2023-03-13T11:15:46;97335.50;;;0.05;73.39
49943;BME280;36011;53.362;58.948;2023-03-13T11:25:23;97348.53;;;0.01;72.85
49943;BME280;36011;53.362;58.948;2023-03-13T11:28:54;97341.03;;;-0.18;73.77
49943;BME280;36011;53.362;58.948;2023-03-13T11:32:06;97330.06;;;-0.35;74.00
49943;BME280;36011;53.362;58.948;2023-03-13T11:42:07;97336.88;;;-0.28;73.83
49943;BME280;36011;53.362;58.948;2023-03-13T11:59:31;97319.75;;;-0.35;75.24
49943;BME280;36011;53.362;58.948;2023-03-13T12:02:55;97310.72;;;-0.10;74.04
49943;BME280;36011;53.362;58.948;2023-03-13T12:06:01;97292.94;;;-0.28;73.81
49943;BME280;36011;53.362;58.948;2023-03-13T12:12:18;97288.84;;;-0.44;75.43
49943;BME280;36011;53.362;58.948;2023-03-13T12:15:27;97282.06;;;-0.52;75.92
49943;BME280;36011;53.362;58.948;2023-03-13T12:18:35;97288.75;;;-0.38;76.24
49943;BME280;36011;53.362;58.948;2023-03-13T12:21:49;97283.44;;;-0.29;75.47
49943;BME280;36011;53.362;58.948;2023-03-13T12:25:20;97290.47;;;-0.37;76.09
49943;BME280;36011;53.362;58.948;2023-03-13T12:31:57;97252.72;;;-0.48;76.44
49943;BME280;36011;53.362;58.948;2023-03-13T12:35:34;97275.13;;;-0.50;76.84
49943;BME280;36011;53.362;58.948;2023-03-13T12:38:43;97269.28;;;-0.62;77.39
49943;BME280;36011;53.362;58.948;2023-03-13T12:42:00;97275.00;;;-0.40;78.12
49943;BME280;36011;53.362;58.948;2023-03-13T12:45:15;97269.81;;;-0.40;77.38
49943;BME280;36011;53.362;58.948;2023-03-13T12:52:05;97266.50;;;-0.49;78.02
49943;BME280;36011;53.362;58.948;2023-03-13T12:58:47;97256.00;;;-0.36;77.32
49943;BME280;36011;53.362;58.948;2023-03-13T13:01:53;97244.59;;;-0.25;77.56
49943;BME280;36011;53.362;58.948;2023-03-13T13:05:00;97232.78;;;-0.41;77.59
49943;BME280;36011;53.362;58.948;2023-03-13T13:08:02;97222.47;;;-0.42;77.45
49943;BME280;36011;53.362;58.948;2023-03-13T13:14:56;97214.84;;;-0.52;79.28
49943;BME280;36011;53.362;58.948;2023-03-13T13:18:25;97210.88;;;-0.20;78.40
49943;BME280;36011;53.362;58.948;2023-03-13T13:21:32;97200.00;;;-0.39;78.48
49943;BME280;36011;53.362;58.948;2023-03-13T13:24:52;97201.91;;;-0.50;79.43
49943;BME280;36011;53.362;58.948;2023-03-13T13:27:54;97202.50;;;-0.34;79.14
49943;BME280;36011;53.362;58.948;2023-03-13T13:30:58;97183.53;;;-0.33;78.79
49943;BME280;36011;53.362;58.948;2023-03-13T13:34:05;97181.00;;;-0.38;78.57
49943;BME280;36011;53.362;58.948;2023-03-13T13:40:19;97173.53;;;-0.55;79.88
49943;BME280;36011;53.362;58.948;2023-03-13T13:43:23;97174.38;;;-0.54;79.79
49943;BME280;36011;53.362;58.948;2023-03-13T13:46:33;97164.94;;;-0.57;80.61
49943;BME280;36011;53.362;58.948;2023-03-13T13:49:52;97178.66;;;-0.50;80.27
49943;BME280;36011;53.362;58.948;2023-03-13T13:56:59;97178.56;;;-0.46;80.56
49943;BME280;36011;53.362;58.948;2023-03-13T14:00:17;97187.25;;;-0.50;80.43
49943;BME280;36011;53.362;58.948;2023-03-13T14:03:25;97184.44;;;-0.37;80.13
49943;BME280;36011;53.362;58.948;2023-03-13T14:06:33;97186.19;;;-0.36;80.13
49943;BME280;36011;53.362;58.948;2023-03-13T14:12:58;97170.31;;;-0.68;81.02
49943;BME280;36011;53.362;58.948;2023-03-13T14:16:28;97171.84;;;-0.56;81.09
49943;BME280;36011;53.362;58.948;2023-03-13T14:19:43;97173.38;;;-0.46;81.16
49943;BME280;36011;53.362;58.948;2023-03-13T14:22:49;97165.50;;;-0.36;80.41
49943;BME280;36011;53.362;58.948;2023-03-13T14:25:54;97167.34;;;-0.44;80.29
49943;BME280;36011;53.362;58.948;2023-03-13T14:28:58;97159.50;;;-0.38;80.17
49943;BME280;36011;53.362;58.948;2023-03-13T14:32:02;97161.41;;;-0.50;81.00
49943;BME280;36011;53.362;58.948;2023-03-13T14:35:07;97154.75;;;-0.66;81.59
49943;BME280;36011;53.362;58.948;2023-03-13T14:38:30;97134.94;;;-0.65;81.02
49943;BME280;36011;53.362;58.948;2023-03-13T14:41:40;97149.53;;;-0.63;81.54
49943;BME280;36011;53.362;58.948;2023-03-13T14:44:47;97150.44;;;-0.64;81.73
49943;BME280;36011;53.362;58.948;2023-03-13T14:47:54;97137.28;;;-0.52;81.70
49943;BME280;36011;53.362;58.948;2023-03-13T14:51:20;97139.75;;;-0.44;82.48
49943;BME280;36011;53.362;58.948;2023-03-13T14:54:28;97136.41;;;-0.49;81.39
49943;BME280;36011;53.362;58.948;2023-03-13T14:57:31;97141.09;;;-0.74;82.06
49943;BME280;36011;53.362;58.948;2023-03-13T15:03:43;97128.19;;;-0.73;83.18
49943;BME280;36011;53.362;58.948;2023-03-13T15:06:46;97116.94;;;-0.70;83.43
49943;BME280;36011;53.362;58.948;2023-03-13T15:09:48;97111.34;;;-0.46;83.28
49943;BME280;36011;53.362;58.948;2023-03-13T15:12:52;97101.00;;;-0.46;83.06
49943;BME280;36011;53.362;58.948;2023-03-13T15:16:00;97107.78;;;-0.40;81.97
49943;BME280;36011;53.362;58.948;2023-03-13T15:19:02;97108.75;;;-0.46;82.08
49943;BME280;36011;53.362;58.948;2023-03-13T15:22:03;97086.41;;;-0.48;81.88
49943;BME280;36011;53.362;58.948;2023-03-13T15:25:19;97079.34;;;-0.40;81.45
49943;BME280;36011;53.362;58.948;2023-03-13T15:28:26;97081.09;;;-0.40;82.26
49943;BME280;36011;53.362;58.948;2023-03-13T15:31:30;97088.03;;;-0.42;81.67
49943;BME280;36011;53.362;58.948;2023-03-13T15:34:35;97077.00;;;-0.51;82.25
49943;BME280;36011;53.362;58.948;2023-03-13T15:37:39;97077.84;;;-0.50;82.59
49943;BME280;36011;53.362;58.948;2023-03-13T15:40:41;97077.19;;;-0.63;83.01
49943;BME280;36011;53.362;58.948;2023-03-13T15:43:42;97068.53;;;-0.60;83.38
49943;BME280;36011;53.362;58.948;2023-03-13T15:46:46;97067.38;;;-0.44;82.97
49943;BME280;36011;53.362;58.948;2023-03-13T15:49:48;97075.22;;;-0.49;82.95
49943;BME280;36011;53.362;58.948;2023-03-13T15:52:51;97063.34;;;-0.59;83.14
49943;BME280;36011;53.362;58.948;2023-03-13T15:56:02;97058.91;;;-0.51;83.27
49943;BME280;36011;53.362;58.948;2023-03-13T15:59:14;97067.56;;;-0.53;83.84
49943;BME280;36011;53.362;58.948;2023-03-13T16:02:22;97068.34;;;-0.50;84.05
49943;BME280;36011;53.362;58.948;2023-03-13T16:05:27;97066.53;;;-0.46;83.91
49943;BME280;36011;53.362;58.948;2023-03-13T16:08:32;97052.66;;;-0.40;83.40
49943;BME280;36011;53.362;58.948;2023-03-13T16:11:36;97058.00;;;-0.50;84.05
49943;BME280;36011;53.362;58.948;2023-03-13T16:14:39;97052.47;;;-0.31;83.66
49943;BME280;36011;53.362;58.948;2023-03-13T16:17:43;97044.75;;;-0.33;83.36
49943;BME280;36011;53.362;58.948;2023-03-13T16:20:46;97020.84;;;-0.42;83.06
49943;BME280;36011;53.362;58.948;2023-03-13T16:23:51;97021.44;;;-0.31;83.93
49943;BME280;36011;53.362;58.948;2023-03-13T16:26:56;97008.88;;;-0.50;83.50
49943;BME280;36011;53.362;58.948;2023-03-13T16:30:02;97022.41;;;-0.35;84.65
49943;BME280;36011;53.362;58.948;2023-03-13T16:33:10;97018.25;;;-0.42;84.43
49943;BME280;36011;53.362;58.948;2023-03-13T16:36:21;97029.31;;;-0.36;84.26
49943;BME280;36011;53.362;58.948;2023-03-13T16:39:27;97005.94;;;-0.31;84.22
49943;BME280;36011;53.362;58.948;2023-03-13T16:42:32;97018.00;;;-0.30;84.30
49943;BME280;36011;53.362;58.948;2023-03-13T16:45:34;97008.16;;;-0.11;84.42
49943;BME280;36011;53.362;58.948;2023-03-13T16:48:40;97011.81;;;-0.23;83.64
49943;BME280;36011;53.362;58.948;2023-03-13T16:51:45;97002.75;;;-0.42;84.09
49943;BME280;36011;53.362;58.948;2023-03-13T16:54:50;97019.75;;;-0.32;84.62
49943;BME280;36011;53.362;58.948;2023-03-13T16:57:56;97000.03;;;-0.36;85.13
49943;BME280;36011;53.362;58.948;2023-03-13T17:01:01;97002.69;;;-0.39;84.51
49943;BME280;36011;53.362;58.948;2023-03-13T17:04:07;97014.59;;;-0.32;84.69
49943;BME280;36011;53.362;58.948;2023-03-13T17:07:12;97032.59;;;-0.28;84.68
49943;BME280;36011;53.362;58.948;2023-03-13T17:10:31;97009.16;;;-0.18;84.10
49943;BME280;36011;53.362;58.948;2023-03-13T17:13:35;97014.47;;;-0.26;84.40
49943;BME280;36011;53.362;58.948;2023-03-13T17:16:42;97017.69;;;-0.15;84.58
49943;BME280;36011;53.362;58.948;2023-03-13T17:19:48;97009.78;;;-0.09;84.49
49943;BME280;36011;53.362;58.948;2023-03-13T17:22:53;96984.81;;;-0.10;83.76
49943;BME280;36011;53.362;58.948;2023-03-13T17:26:08;96991.09;;;-0.21;84.11
49943;BME280;36011;53.362;58.948;2023-03-13T17:29:17;97015.94;;;-0.13;84.08
49943;BME280;36011;53.362;58.948;2023-03-13T17:32:22;97008.88;;;-0.05;84.36